Accueil
METAR-TAF:

METAR-TAF

Aéroports :

Great Bend Municipal Airport

Great Bend, Kansas, États-Unis

latitude: 38-21N, longitude: 098-52W, altitude: 575 m

Observation

Le bulletin a été fait il y a 49 minutes, à 01:56 UTC
Vent 8 kt de sud
Température 0°C
Humidité 74%
Pression 1023 hPa
Visibilité: 16.1 km
Ciel clair

METAR: KGBD 110156Z AUTO 19008KT 10SM CLR 00/M04 A3021 RMK AO2 SLP254 T00001039 FZRANO

Heure: 20:45 (02:45 UTC)

Prévision

Le bulletin a été fait il y a 3 heures et 25 minutes, à 23:20 UTC
Prévision valable du 11 à 00 UTC au 11 à 24 UTC
Vent 6 kt de sud
Visibilité: 10 km
Ciel clair
A partir de 11 à 1800 UTC
Vent 12 kt de sud/sud-ouest
Visibilité: 10 km
Nuages épars à une hauteur de 20000 ft
A partir de 11 à 2200 UTC
Vent 8 kt de nord-ouest
Visibilité: 10 km
Nuages fragmentés à une hauteur de 20000 ft

TAF: KGBD 102320Z 1100/1124 19006KT P6SM SKC FM111800 20012KT P6SM SCT200 FM112200 31008KT P6SM BKN200 AMD LTD TO CLD VIS AND WIND

Observations et prévisions météorologiques de plus de 4000 aéroports (messages METAR et TAF).

Les stations disponibles sont représentées par des disques jaunes et rouges sur la carte.

Passer la souris dessus pour voir le nom de la station.

Cliquer dessus pour voir les observations et prévisions météorologiques.

Pour changer de carte: cliquez sur les boutons verts avec une croix noire pour zoomer, sur le bouton vert avec un tiret pour effectuer un zoom arrière, ou sur les flèches vertes pour les cartes adjacentes.


METAR-TAF: